Ocean Exporter — VRXJ4 — position and weather

sailwx.info

Track history (hours):
 
Tides and Currents Weather Stations Pressure Air Temp Water Temp Dewpoint Dewpoint Depression Visibility Wind Speed Wind Dir Waves Ship Positions

Ocean Exporter

Last reported at 2017-Oct-17 07:28 UTC. Time now 2017-Oct-17 07:53 UTC.
Position N 44°30' E 012°30'.

Length 169 m; draft 5.3 m.

Type: Cargo ship. MMSI: 477980000.

Date/timePositionNaut miles runAvg speedWind from/ knotsBaromVisibWave heightAir tempDewpointWater temp
2017-Oct-17 07:28N 44°30' E 012°30'0 0.0
2017-Oct-17 06:55N 44°30' E 012°30'0 0.0
2017-Oct-17 06:28N 44°30' E 012°30'0 0.2
2017-Oct-17 06:00N 44°30' E 012°30'2 3.1
2017-Oct-17 05:30N 44°28' E 012°31'4 7.8
2017-Oct-17 05:00N 44°28' E 012°36'5 7.9
2017-Oct-17 04:25N 44°26' E 012°43'3 8.2
2017-Oct-17 04:00N 44°25' E 012°47'7 9.2
2017-Oct-17 03:16N 44°23' E 012°56'414.1
2017-Oct-17 03:01N 44°21' E 013°01'714.0
2017-Oct-17 02:30N 44°19' E 013°10'714.0
2017-Oct-17 02:00N 44°15' E 013°19'713.8
2017-Oct-17 01:30N 44°11' E 013°26'714.0
2017-Oct-17 01:00N 44°07' E 013°34'714.1
2017-Oct-17 00:30N 44°03' E 013°42'714.0
2017-Oct-17 00:01N 43°59' E 013°50'713.7
2017-Oct-16 23:30N 43°55' E 013°57'713.7
2017-Oct-16 23:00N 43°51' E 014°05'714.0
2017-Oct-16 22:31N 43°47' E 014°14'713.8
2017-Oct-16 22:00N 43°43' E 014°21'713.9
2017-Oct-16 21:30N 43°38' E 014°27'713.8
2017-Oct-16 21:00N 43°33' E 014°34'813.9
2017-Oct-16 20:26N 43°27' E 014°41'614.1
2017-Oct-16 20:00N 43°22' E 014°47'714.0
2017-Oct-16 19:30N 43°17' E 014°53'1213.8
2017-Oct-16 18:38N 43°08' E 015°04'513.9
2017-Oct-16 18:18N 43°04' E 015°08'613.9
2017-Oct-16 17:52N 42°59' E 015°13'613.8
2017-Oct-16 17:26N 42°55' E 015°19'613.9
2017-Oct-16 16:59N 42°51' E 015°25'12713.7
2017-Oct-16 07:39N 41°22' E 017°27'213.7
2017-Oct-16 07:30N 41°20' E 017°29'713.8
2017-Oct-16 07:00N 41°15' E 017°35'713.9
2017-Oct-16 06:30N 41°09' E 017°40'713.8
2017-Oct-16 06:01N 41°04' E 017°46'713.7
2017-Oct-16 05:29N 40°59' E 017°53'713.7
2017-Oct-16 05:01N 40°54' E 017°59'713.1
2017-Oct-16 04:30N 40°49' E 018°04'712.8
2017-Oct-16 03:56N 40°44' E 018°11'613.2
2017-Oct-16 03:30N 40°39' E 018°15'713.5
2017-Oct-16 03:00N 40°35' E 018°22'713.3
2017-Oct-16 02:30N 40°30' E 018°28'713.3
2017-Oct-16 02:00N 40°25' E 018°34'713.4
2017-Oct-16 01:31N 40°20' E 018°40'713.7
2017-Oct-16 01:00N 40°13' E 018°39'713.3
2017-Oct-16 00:30N 40°06' E 018°39'713.2
2017-Oct-16 00:00N 39°60' E 018°39'713.1
2017-Oct-15 23:30N 39°53' E 018°39'713.0
2017-Oct-15 23:00N 39°47' E 018°39'713.5
2017-Oct-15 22:30N 39°41' E 018°33'713.5
2017-Oct-15 22:01N 39°36' E 018°28'713.6
2017-Oct-15 21:29N 39°30' E 018°22'714.0
2017-Oct-15 21:00N 39°25' E 018°17'713.9
2017-Oct-15 20:30N 39°19' E 018°12'713.8
2017-Oct-15 20:01N 39°14' E 018°07'713.8
2017-Oct-15 19:29N 39°08' E 018°01'913.7
2017-Oct-15 18:51N 39°01' E 017°54'613.8
2017-Oct-15 18:26N 38°56' E 017°50'1013.8
2017-Oct-15 17:41N 38°48' E 017°42'9414.0
2017-Oct-15 10:59N 37°32' E 016°31'714.3
2017-Oct-15 10:30N 37°27' E 016°26'714.3
2017-Oct-15 10:00N 37°21' E 016°21'714.4
2017-Oct-15 09:30N 37°15' E 016°15'714.4
2017-Oct-15 09:00N 37°09' E 016°10'814.3
2017-Oct-15 08:25N 37°03' E 016°04'7213.9
2017-Oct-15 03:12N 36°05' E 015°10'313.1
2017-Oct-15 03:00N 36°02' E 015°08'713.2
2017-Oct-15 02:30N 35°57' E 015°04'713.0
2017-Oct-15 01:58N 35°51' E 014°59'612.9
2017-Oct-15 01:30N 35°47' E 014°54'713.2
2017-Oct-15 01:00N 35°41' E 014°50'713.1
2017-Oct-15 00:26N 35°35' E 014°44'613.6
2017-Oct-15 00:00N 35°33' E 014°37'713.8
2017-Oct-14 23:30N 35°30' E 014°29'714.0
2017-Oct-14 23:01N 35°28' E 014°21'1314.0
2017-Oct-14 22:03N 35°22' E 014°06'113.8
2017-Oct-14 22:00N 35°22' E 014°06'713.9
2017-Oct-14 21:30N 35°19' E 013°58'714.1
2017-Oct-14 21:00N 35°16' E 013°50'713.9
2017-Oct-14 20:30N 35°14' E 013°42'713.8
2017-Oct-14 20:00N 35°11' E 013°34'  
Track history (hours):
 
Tides and Currents Weather Stations Pressure Air Temp Water Temp Dewpoint Dewpoint Depression Visibility Wind Speed Wind Dir Waves Ship Positions

Ocean Exporter

Last reported at 2017-Oct-17 07:28 UTC. Time now 2017-Oct-17 07:53 UTC.
Position N 44°30' E 012°30'.

Length 169 m; draft 5.3 m.

Type: Cargo ship. MMSI: 477980000.

Date/timePositionNaut miles runAvg speedWind from/ knotsBaromVisibWave heightAir tempDewpointWater temp
2017-Oct-17 07:28N 44°30' E 012°30'0 0.0
2017-Oct-17 06:55N 44°30' E 012°30'0 0.0
2017-Oct-17 06:28N 44°30' E 012°30'0 0.2
2017-Oct-17 06:00N 44°30' E 012°30'2 3.1
2017-Oct-17 05:30N 44°28' E 012°31'4 7.8
2017-Oct-17 05:00N 44°28' E 012°36'5 7.9
2017-Oct-17 04:25N 44°26' E 012°43'3 8.2
2017-Oct-17 04:00N 44°25' E 012°47'7 9.2
2017-Oct-17 03:16N 44°23' E 012°56'414.1
2017-Oct-17 03:01N 44°21' E 013°01'714.0
2017-Oct-17 02:30N 44°19' E 013°10'714.0
2017-Oct-17 02:00N 44°15' E 013°19'713.8
2017-Oct-17 01:30N 44°11' E 013°26'714.0
2017-Oct-17 01:00N 44°07' E 013°34'714.1
2017-Oct-17 00:30N 44°03' E 013°42'714.0
2017-Oct-17 00:01N 43°59' E 013°50'713.7
2017-Oct-16 23:30N 43°55' E 013°57'713.7
2017-Oct-16 23:00N 43°51' E 014°05'714.0
2017-Oct-16 22:31N 43°47' E 014°14'713.8
2017-Oct-16 22:00N 43°43' E 014°21'713.9
2017-Oct-16 21:30N 43°38' E 014°27'713.8
2017-Oct-16 21:00N 43°33' E 014°34'813.9
2017-Oct-16 20:26N 43°27' E 014°41'614.1
2017-Oct-16 20:00N 43°22' E 014°47'714.0
2017-Oct-16 19:30N 43°17' E 014°53'1213.8
2017-Oct-16 18:38N 43°08' E 015°04'513.9
2017-Oct-16 18:18N 43°04' E 015°08'613.9
2017-Oct-16 17:52N 42°59' E 015°13'613.8
2017-Oct-16 17:26N 42°55' E 015°19'613.9
2017-Oct-16 16:59N 42°51' E 015°25'12713.7
2017-Oct-16 07:39N 41°22' E 017°27'213.7
2017-Oct-16 07:30N 41°20' E 017°29'713.8
2017-Oct-16 07:00N 41°15' E 017°35'713.9
2017-Oct-16 06:30N 41°09' E 017°40'713.8
2017-Oct-16 06:01N 41°04' E 017°46'713.7
2017-Oct-16 05:29N 40°59' E 017°53'713.7
2017-Oct-16 05:01N 40°54' E 017°59'713.1
2017-Oct-16 04:30N 40°49' E 018°04'712.8
2017-Oct-16 03:56N 40°44' E 018°11'613.2
2017-Oct-16 03:30N 40°39' E 018°15'713.5
2017-Oct-16 03:00N 40°35' E 018°22'713.3
2017-Oct-16 02:30N 40°30' E 018°28'713.3
2017-Oct-16 02:00N 40°25' E 018°34'713.4
2017-Oct-16 01:31N 40°20' E 018°40'713.7
2017-Oct-16 01:00N 40°13' E 018°39'713.3
2017-Oct-16 00:30N 40°06' E 018°39'713.2
2017-Oct-16 00:00N 39°60' E 018°39'713.1
2017-Oct-15 23:30N 39°53' E 018°39'713.0
2017-Oct-15 23:00N 39°47' E 018°39'713.5
2017-Oct-15 22:30N 39°41' E 018°33'713.5
2017-Oct-15 22:01N 39°36' E 018°28'713.6
2017-Oct-15 21:29N 39°30' E 018°22'714.0
2017-Oct-15 21:00N 39°25' E 018°17'713.9
2017-Oct-15 20:30N 39°19' E 018°12'713.8
2017-Oct-15 20:01N 39°14' E 018°07'713.8
2017-Oct-15 19:29N 39°08' E 018°01'913.7
2017-Oct-15 18:51N 39°01' E 017°54'613.8
2017-Oct-15 18:26N 38°56' E 017°50'1013.8
2017-Oct-15 17:41N 38°48' E 017°42'9414.0
2017-Oct-15 10:59N 37°32' E 016°31'714.3
2017-Oct-15 10:30N 37°27' E 016°26'714.3
2017-Oct-15 10:00N 37°21' E 016°21'714.4
2017-Oct-15 09:30N 37°15' E 016°15'714.4
2017-Oct-15 09:00N 37°09' E 016°10'814.3
2017-Oct-15 08:25N 37°03' E 016°04'7213.9
2017-Oct-15 03:12N 36°05' E 015°10'313.1
2017-Oct-15 03:00N 36°02' E 015°08'713.2
2017-Oct-15 02:30N 35°57' E 015°04'713.0
2017-Oct-15 01:58N 35°51' E 014°59'612.9
2017-Oct-15 01:30N 35°47' E 014°54'713.2
2017-Oct-15 01:00N 35°41' E 014°50'713.1
2017-Oct-15 00:26N 35°35' E 014°44'613.6
2017-Oct-15 00:00N 35°33' E 014°37'713.8
2017-Oct-14 23:30N 35°30' E 014°29'714.0
2017-Oct-14 23:01N 35°28' E 014°21'1314.0
2017-Oct-14 22:03N 35°22' E 014°06'113.8
2017-Oct-14 22:00N 35°22' E 014°06'713.9
2017-Oct-14 21:30N 35°19' E 013°58'714.1
2017-Oct-14 21:00N 35°16' E 013°50'713.9
2017-Oct-14 20:30N 35°14' E 013°42'713.8
2017-Oct-14 20:00N 35°11' E 013°34'  

Dump ship's entire track history